Time;durP1;ratioP1;P1;durP2;ratioP2;P2;SDS_P1;SDS_P2;PMS_P1;PMS_P2;Temp;Humidity;BMP_temperature;BMP_pressure;BME280_temperature;BME280_humidity;BME280_pressure;Samples;Min_cycle;Max_cycle;Signal;HPM_P1;HPM_P2
2022/05/22 00:02:30;;;;;;;6.10;5.50;;;;;;;22.43;70.79;100619.53;4879382;29;20049;-68
2022/05/22 00:05:02;;;;;;;8.43;5.53;;;;;;;22.50;70.46;100603.00;4893532;29;20490;-68
2022/05/22 00:07:31;;;;;;;6.77;5.83;;;;;;;22.42;71.06;100602.00;4891408;29;20052;-68
2022/05/22 00:10:01;;;;;;;9.98;6.03;;;;;;;22.37;71.28;100607.03;4889590;29;20296;-68
2022/05/22 00:12:32;;;;;;;6.90;6.00;;;;;;;22.44;70.66;100604.44;4898022;29;20056;-68
2022/05/22 00:15:00;;;;;;;9.98;6.22;;;;;;;22.40;71.11;100600.75;4896129;29;20061;-67
2022/05/22 00:17:29;;;;;;;9.60;6.15;;;;;;;22.21;72.11;100593.91;4895963;29;20520;-68
2022/05/22 00:19:57;;;;;;;7.22;6.45;;;;;;;22.07;72.73;100590.75;4896084;29;20060;-67
2022/05/22 00:22:25;;;;;;;9.07;6.75;;;;;;;22.14;72.43;100597.31;4896747;29;20073;-65
2022/05/22 00:24:53;;;;;;;8.32;6.38;;;;;;;22.23;72.33;100594.34;4896586;29;20052;-67
2022/05/22 00:27:22;;;;;;;7.25;6.50;;;;;;;22.34;71.66;100589.03;4895147;29;20056;-67
2022/05/22 00:29:51;;;;;;;7.53;6.13;;;;;;;22.32;72.02;100596.97;4879423;29;20082;-67
2022/05/22 00:32:20;;;;;;;9.77;6.13;;;;;;;22.20;72.38;100591.50;4879182;29;20056;-67
2022/05/22 00:34:48;;;;;;;9.35;6.95;;;;;;;22.08;73.05;100595.97;4896339;29;20048;-67
2022/05/22 00:37:16;;;;;;;7.60;6.55;;;;;;;22.00;73.31;100594.19;4892810;29;20053;-67
2022/05/22 00:39:47;;;;;;;10.90;6.82;;;;;;;22.02;73.54;100587.09;4893606;29;20045;-68
2022/05/22 00:42:26;;;;;;;7.05;6.35;;;;;;;22.02;73.29;100581.50;4892695;29;20048;-67
2022/05/22 00:44:54;;;;;;;11.45;7.68;;;;;;;21.90;74.01;100584.38;4895005;29;20069;-67
2022/05/22 00:47:23;;;;;;;7.57;6.78;;;;;;;21.67;75.18;100587.72;4892407;29;20059;-67
2022/05/22 00:50:00;;;;;;;9.60;6.72;;;;;;;21.78;74.64;100592.78;4895268;29;20055;-68
2022/05/22 00:52:45;;;;;;;11.07;7.05;;;;;;;21.67;75.14;100581.34;4895603;29;20044;-67
2022/05/22 00:55:21;;;;;;;9.02;7.32;;;;;;;21.79;74.81;100589.66;4879567;29;20522;-67
2022/05/22 00:58:11;;;;;;;9.10;7.25;;;;;;;21.72;75.14;100581.09;4894800;29;20055;-67
2022/05/22 01:00:41;;;;;;;12.32;7.18;;;;;;;21.66;75.40;100579.72;4898434;29;20060;-68
2022/05/22 01:03:28;;;;;;;9.85;7.32;;;;;;;21.59;75.83;100577.53;4879871;29;20051;-68
2022/05/22 01:06:08;;;;;;;14.80;7.75;;;;;;;21.62;75.53;100579.63;4897760;29;20075;-68
2022/05/22 01:08:39;;;;;;;11.80;7.75;;;;;;;21.64;76.00;100582.06;4896336;29;20045;-68
2022/05/22 01:11:13;;;;;;;12.15;7.03;;;;;;;21.52;76.18;100580.13;4894098;29;20056;-68
2022/05/22 01:13:48;;;;;;;9.70;7.03;;;;;;;21.42;76.76;100582.28;4893476;29;20385;-67
2022/05/22 01:16:19;;;;;;;7.90;7.10;;;;;;;21.35;77.25;100570.91;4892661;29;20076;-68
2022/05/22 01:18:51;;;;;;;8.75;7.55;;;;;;;21.28;77.88;100574.31;4879745;29;20059;-67
2022/05/22 01:21:31;;;;;;;9.15;7.90;;;;;;;21.30;77.56;100573.94;4899603;29;20048;-67
2022/05/22 01:23:59;;;;;;;8.23;7.30;;;;;;;21.26;78.29;100578.63;4898887;29;20056;-67
2022/05/22 01:26:30;;;;;;;11.65;7.65;;;;;;;21.11;78.75;100572.63;4882676;29;20052;-68
2022/05/22 01:29:24;;;;;;;8.95;7.57;;;;;;;21.04;78.93;100569.63;4883887;29;20492;-67
2022/05/22 01:31:53;;;;;;;12.75;7.45;;;;;;;21.05;79.13;100568.47;4898703;29;20048;-68
2022/05/22 01:34:24;;;;;;;8.90;7.15;;;;;;;21.11;78.62;100567.06;4898610;29;20055;-68
2022/05/22 01:36:52;;;;;;;11.93;7.45;;;;;;;21.19;78.22;100568.91;4878598;29;20055;-68
2022/05/22 01:39:20;;;;;;;10.20;7.70;;;;;;;21.14;78.57;100565.53;4882202;29;20500;-68
2022/05/22 01:41:54;;;;;;;9.05;7.53;;;;;;;21.27;77.78;100557.97;4863900;29;20602;-68
2022/05/22 01:44:23;;;;;;;11.25;7.97;;;;;;;21.27;77.57;100557.97;4894590;29;20053;-68
2022/05/22 01:46:51;;;;;;;9.23;7.28;;;;;;;21.27;77.54;100549.63;4882350;29;20048;-68
2022/05/22 01:49:22;;;;;;;11.93;7.25;;;;;;;21.32;77.60;100555.72;4881742;29;20059;-68
2022/05/22 01:51:50;;;;;;;13.00;8.02;;;;;;;21.32;77.37;100550.16;4881609;29;20065;-67
2022/05/22 01:54:18;;;;;;;11.38;7.53;;;;;;;21.29;77.48;100550.91;4898428;29;20048;-68
2022/05/22 01:56:46;;;;;;;11.18;8.00;;;;;;;21.18;78.21;100555.34;4898836;29;20040;-68
2022/05/22 01:59:15;;;;;;;7.57;6.82;;;;;;;21.15;78.22;100556.84;4895138;29;20049;-67
2022/05/22 02:02:09;;;;;;;10.07;7.63;;;;;;;21.26;77.76;100559.94;4890055;29;20122;-67
2022/05/22 02:04:38;;;;;;;12.18;7.40;;;;;;;21.18;78.26;100560.91;4866246;29;20408;-67
2022/05/22 02:09:54;;;;;;;10.00;7.82;;;;;;;21.00;79.08;100560.38;4897951;29;20064;-68
2022/05/22 02:12:25;;;;;;;11.18;7.53;;;;;;;20.79;80.44;100547.44;4877201;29;20405;-68
2022/05/22 02:14:53;;;;;;;8.80;7.65;;;;;;;20.87;79.61;100543.72;4892296;29;20059;-67
2022/05/22 02:17:21;;;;;;;10.45;7.88;;;;;;;20.96;79.43;100548.34;4898085;29;20412;-68
2022/05/22 02:19:51;;;;;;;10.55;8.35;;;;;;;20.87;79.71;100552.06;4880913;29;20412;-67
2022/05/22 02:22:47;;;;;;;9.27;7.28;;;;;;;20.77;80.22;100555.31;4897121;29;20060;-68
2022/05/22 02:25:17;;;;;;;;;;;;;;;20.80;80.86;100560.97;4897982;29;20053;-67
2022/05/22 02:27:46;;;;;;;8.70;6.93;;;;;;;20.87;79.61;100557.63;4897157;29;19924;-67
2022/05/22 02:30:19;;;;;;;9.70;7.80;;;;;;;20.96;79.18;100560.25;4865943;29;20052;-67
2022/05/22 02:32:48;;;;;;;9.13;8.05;;;;;;;20.92;79.36;100553.81;4881148;29;20052;-68
2022/05/22 02:35:16;;;;;;;10.50;7.95;;;;;;;20.80;80.29;100546.25;4898176;29;20396;-68
2022/05/22 02:37:50;;;;;;;11.32;8.52;;;;;;;20.76;80.29;100540.59;4881483;29;20048;-68
2022/05/22 02:40:30;;;;;;;;;;;;;;;20.66;81.00;100539.09;4880638;29;20052;-68
2022/05/22 02:42:58;;;;;;;11.20;7.90;;;;;;;20.72;80.45;100542.44;4880487;29;19923;-68
2022/05/22 02:45:32;;;;;;;11.68;8.20;;;;;;;20.72;80.53;100536.09;4897539;29;20069;-68
2022/05/22 02:48:07;;;;;;;11.27;8.23;;;;;;;20.68;81.17;100542.34;4881356;29;20044;-68
2022/05/22 02:50:35;;;;;;;13.27;8.60;;;;;;;20.51;81.69;100542.59;4880609;29;20055;-68
2022/05/22 02:53:09;;;;;;;;;;;;;;;20.53;81.70;100540.28;4877413;29;20080;-68
2022/05/22 02:56:12;;;;;;;12.23;8.90;;;;;;;20.49;82.37;100542.16;4828083;29;19924;-67
2022/05/22 02:59:15;;;;;;;12.35;8.45;;;;;;;20.28;83.55;100541.09;4839945;29;20528;-67
2022/05/22 03:02:02;;;;;;;12.68;9.15;;;;;;;20.37;82.95;100535.44;4858352;29;20057;-68
2022/05/22 03:04:32;;;;;;;12.82;8.57;;;;;;;20.55;81.80;100537.97;4858636;29;20060;-68
2022/05/22 03:07:11;;;;;;;11.38;8.48;;;;;;;20.50;82.22;100541.81;4858533;29;20053;-68
2022/05/22 03:09:41;;;;;;;10.98;8.45;;;;;;;20.50;82.76;100546.53;4860374;29;20046;-68
2022/05/22 03:12:18;;;;;;;11.23;8.90;;;;;;;20.58;81.33;100540.03;4873234;29;20057;-68
2022/05/22 03:14:54;;;;;;;16.02;9.05;;;;;;;20.40;82.82;100534.72;4877048;29;20053;-68
2022/05/22 03:17:24;;;;;;;14.75;8.40;;;;;;;20.31;83.53;100527.66;4876886;29;20056;-68
2022/05/22 03:19:54;;;;;;;10.57;8.18;;;;;;;20.33;83.16;100530.94;4876958;29;20394;-68
2022/05/22 03:22:22;;;;;;;12.82;8.73;;;;;;;20.39;83.14;100532.31;4878821;29;20053;-68
2022/05/22 03:24:51;;;;;;;10.85;8.52;;;;;;;20.33;83.43;100534.50;4878826;29;20516;-68
2022/05/22 03:27:20;;;;;;;12.27;9.30;;;;;;;20.24;83.72;100536.59;4876731;29;20064;-68
2022/05/22 03:29:51;;;;;;;12.20;8.93;;;;;;;20.18;84.03;100535.22;4876773;29;20072;-68
2022/05/22 03:32:20;;;;;;;10.65;8.07;;;;;;;20.21;84.08;100527.00;4875176;29;20045;-68
2022/05/22 03:34:56;;;;;;;12.77;8.27;;;;;;;20.33;83.12;100539.25;4879399;29;20408;-68
2022/05/22 03:37:25;;;;;;;12.35;8.88;;;;;;;20.23;83.72;100534.97;4878210;29;20828;-68
2022/05/22 03:39:57;;;;;;;12.60;8.77;;;;;;;20.15;84.23;100545.03;4862842;29;20052;-67
2022/05/22 03:42:25;;;;;;;12.82;8.65;;;;;;;20.21;83.84;100542.84;4877125;29;20060;-67
2022/05/22 03:44:53;;;;;;;12.55;8.77;;;;;;;20.35;83.18;100531.38;4878406;29;20049;-67
2022/05/22 03:47:22;;;;;;;11.73;9.18;;;;;;;20.27;83.71;100538.66;4876724;29;20056;-67
2022/05/22 03:50:12;;;;;;;12.93;9.18;;;;;;;20.11;84.39;100539.38;4877439;29;20053;-67
2022/05/22 03:52:42;;;;;;;15.88;9.90;;;;;;;20.18;84.63;100540.78;4876590;29;20053;-67
2022/05/22 03:55:24;;;;;;;11.30;8.52;;;;;;;20.21;83.94;100537.28;4862592;29;20057;-66
2022/05/22 03:57:52;;;;;;;13.50;9.98;;;;;;;20.13;85.02;100542.59;4877293;29;20048;-67
2022/05/22 04:00:23;;;;;;;11.65;8.38;;;;;;;20.26;83.91;100548.16;4861656;29;20070;-67
2022/05/22 04:02:53;;;;;;;12.80;8.77;;;;;;;20.55;82.45;100551.88;4876919;29;20056;-67
2022/05/22 04:05:23;;;;;;;17.63;9.75;;;;;;;20.45;83.44;100549.53;4877250;29;20080;-67
2022/05/22 04:07:53;;;;;;;15.02;9.32;;;;;;;20.37;83.37;100552.09;4876350;29;20049;-67
2022/05/22 04:10:36;;;;;;;9.95;8.77;;;;;;;20.56;82.34;100561.81;4878259;29;20068;-67
2022/05/22 04:13:05;;;;;;;9.95;8.88;;;;;;;20.54;82.56;100555.81;4876278;29;20052;-67
2022/05/22 04:15:33;;;;;;;15.18;10.18;;;;;;;20.48;83.10;100554.44;4893472;29;20071;-67
2022/05/22 04:18:03;;;;;;;13.07;9.38;;;;;;;20.62;82.07;100556.84;4879958;29;20049;-67
2022/05/22 04:20:33;;;;;;;11.43;9.05;;;;;;;20.65;81.81;100564.47;4891770;29;20075;-67
2022/05/22 04:26:10;;;;;;;16.35;9.43;;;;;;;20.81;81.21;100564.56;4896113;29;20052;-67
2022/05/22 04:28:40;;;;;;;12.50;8.07;;;;;;;20.90;80.60;100565.28;4868114;29;20497;-67
2022/05/22 04:31:28;;;;;;;14.65;10.02;;;;;;;20.96;80.15;100565.84;4879578;29;20056;-67
2022/05/22 04:34:14;;;;;;;11.43;8.85;;;;;;;20.85;81.21;100557.19;4881327;29;20064;-67
2022/05/22 04:36:42;;;;;;;10.73;8.45;;;;;;;20.86;80.90;100560.78;4879858;29;20523;-67
2022/05/22 04:39:24;;;;;;;14.27;8.85;;;;;;;20.96;80.42;100565.84;4880126;29;20049;-67
2022/05/22 04:42:03;;;;;;;13.45;9.10;;;;;;;21.11;79.74;100569.84;4895936;29;20049;-67
2022/05/22 04:44:31;;;;;;;12.82;8.98;;;;;;;21.08;79.98;100567.78;4879423;29;20051;-67
2022/05/22 04:47:18;;;;;;;15.48;9.57;;;;;;;21.13;79.93;100564.75;4881149;29;20057;-67
2022/05/22 04:50:07;;;;;;;13.63;9.40;;;;;;;21.21;79.54;100572.13;4880983;29;20516;-67
2022/05/22 04:52:46;;;;;;;11.98;8.52;;;;;;;21.36;79.41;100566.97;4889387;29;20416;-67
2022/05/22 04:55:19;;;;;;;14.20;9.00;;;;;;;21.58;77.86;100564.78;4882807;29;20501;-67
2022/05/22 04:57:47;;;;;;;11.35;8.60;;;;;;;21.71;77.33;100571.94;4882857;29;20063;-67
2022/05/22 05:00:16;;;;;;;14.10;10.60;;;;;;;21.70;77.23;100572.31;4900029;29;20048;-67
2022/05/22 05:02:55;;;;;;;12.43;9.65;;;;;;;21.67;77.60;100575.75;4880667;29;20123;-67
2022/05/22 05:05:24;;;;;;;15.20;9.85;;;;;;;21.67;78.14;100578.56;4899464;29;20052;-67
2022/05/22 05:07:52;;;;;;;12.68;9.45;;;;;;;21.73;77.20;100579.94;4883027;29;20062;-67
2022/05/22 05:10:40;;;;;;;11.93;8.80;;;;;;;21.94;76.45;100576.91;4882862;29;20048;-67
2022/05/22 05:13:20;;;;;;;11.63;9.90;;;;;;;22.06;75.95;100580.78;4898122;29;20171;-67
2022/05/22 05:16:18;;;;;;;11.93;9.27;;;;;;;22.15;75.20;100581.44;4882589;29;20048;-69
2022/05/22 05:18:56;;;;;;;14.40;9.23;;;;;;;22.36;74.23;100583.13;4880515;29;20059;-71
2022/05/22 05:21:26;;;;;;;13.55;8.43;;;;;;;22.60;72.97;100575.72;4892177;29;20049;-71
2022/05/22 05:23:58;;;;;;;15.65;8.50;;;;;;;22.83;72.36;100587.03;4872668;29;20056;-71
2022/05/22 05:26:30;;;;;;;12.05;8.95;;;;;;;23.02;72.15;100585.44;4866598;29;20079;-71
2022/05/22 05:29:02;;;;;;;11.13;8.20;;;;;;;23.16;71.16;100590.53;4879548;29;20407;-71
2022/05/22 05:31:38;;;;;;;11.13;8.50;;;;;;;23.32;71.04;100588.47;4891999;29;20493;-71
2022/05/22 05:34:18;;;;;;;10.10;8.15;;;;;;;23.29;71.09;100589.19;4878521;29;20064;-71
2022/05/22 05:36:53;;;;;;;12.50;8.73;;;;;;;23.24;71.63;100589.50;4880909;29;20059;-71
2022/05/22 05:39:29;;;;;;;9.05;8.13;;;;;;;23.38;70.34;100585.41;4895573;29;20060;-72
2022/05/22 05:42:15;;;;;;;11.25;7.53;;;;;;;23.49;69.83;100594.78;4894078;29;20396;-71
2022/05/22 05:44:44;;;;;;;12.52;8.75;;;;;;;23.45;70.10;100586.34;4893279;29;20057;-71
2022/05/22 05:47:38;;;;;;;9.88;7.70;;;;;;;23.51;69.44;100595.22;4873634;29;20061;-71
2022/05/22 05:50:30;;;;;;;10.73;8.32;;;;;;;23.44;70.03;100600.69;4896999;29;20048;-71
2022/05/22 05:53:26;;;;;;;10.05;8.45;;;;;;;23.51;70.35;100586.84;4891822;29;20057;-71
2022/05/22 05:56:26;;;;;;;11.02;8.20;;;;;;;23.55;70.46;100584.94;4881122;29;20052;-71
2022/05/22 05:59:12;;;;;;;12.65;9.30;;;;;;;23.76;68.96;100598.50;4898142;29;20057;-71
2022/05/22 06:02:03;;;;;;;11.82;8.65;;;;;;;23.73;68.80;100595.66;4898033;29;20048;-72
2022/05/22 06:04:31;;;;;;;12.48;9.20;;;;;;;23.93;68.23;100593.63;4866245;29;20048;-71
2022/05/22 06:06:59;;;;;;;9.05;7.63;;;;;;;23.95;68.11;100590.47;4892665;29;20084;-71
2022/05/22 06:09:28;;;;;;;13.13;8.60;;;;;;;24.09;67.83;100587.94;4887452;29;20053;-70
2022/05/22 06:12:14;;;;;;;10.68;8.32;;;;;;;24.16;67.35;100584.47;4889850;29;20049;-70
2022/05/22 06:14:55;;;;;;;8.75;7.85;;;;;;;24.22;66.97;100577.38;4885177;29;20496;-70
2022/05/22 06:17:36;;;;;;;10.88;8.52;;;;;;;24.24;66.86;100579.81;4880081;29;20044;-70
2022/05/22 06:20:08;;;;;;;10.70;8.30;;;;;;;24.26;67.31;100572.66;4879542;29;20049;-70
2022/05/22 06:22:44;;;;;;;10.13;8.38;;;;;;;24.27;67.31;100570.66;4880892;29;20048;-70
2022/05/22 06:26:01;;;;;;;13.00;9.98;;;;;;;24.37;65.96;100575.63;4839494;29;20070;-70
2022/05/22 06:28:48;;;;;;;12.43;9.13;;;;;;;24.42;66.54;100578.09;4867807;29;20052;-70
2022/05/22 06:31:46;;;;;;;12.60;7.90;;;;;;;24.63;65.27;100562.81;4883040;29;20048;-71
2022/05/22 06:34:40;;;;;;;10.25;8.55;;;;;;;24.67;65.26;100562.84;4897442;29;20412;-71
2022/05/22 06:37:46;;;;;;;13.32;8.32;;;;;;;24.70;65.43;100551.72;4896278;29;20091;-70
2022/05/22 06:40:18;;;;;;;10.43;7.88;;;;;;;24.77;64.73;100561.38;4897925;29;20386;-70
2022/05/22 06:42:53;;;;;;;9.52;8.07;;;;;;;24.92;65.28;100562.44;4872407;29;20048;-71
2022/05/22 06:45:40;;;;;;;9.95;8.45;;;;;;;25.02;64.67;100555.38;4896561;29;20051;-70
2022/05/22 06:48:26;;;;;;;11.25;7.65;;;;;;;25.08;65.13;100567.84;4916111;29;20048;-71
2022/05/22 06:51:13;;;;;;;13.63;8.35;;;;;;;25.12;64.56;100563.09;4902582;29;20060;-71
2022/05/22 06:53:59;;;;;;;11.57;8.07;;;;;;;25.39;63.79;100565.00;4873222;29;20052;-71
2022/05/22 06:56:30;;;;;;;11.90;8.98;;;;;;;25.36;64.11;100558.16;4877869;29;20056;-71
2022/05/22 06:59:07;;;;;;;10.38;7.70;;;;;;;25.49;63.32;100561.50;4878558;29;20057;-71
2022/05/22 07:01:53;;;;;;;11.18;9.07;;;;;;;25.69;62.20;100558.53;4874181;29;20052;-71
2022/05/22 07:04:30;;;;;;;13.02;8.40;;;;;;;25.73;60.99;100556.59;4860399;29;20057;-71
2022/05/22 07:07:17;;;;;;;15.00;9.60;;;;;;;25.83;61.44;100557.88;4872460;29;20049;-71
2022/05/22 07:10:06;;;;;;;11.35;9.40;;;;;;;26.08;62.07;100546.88;4877827;29;20531;-71
2022/05/22 07:12:53;;;;;;;11.65;8.73;;;;;;;26.14;59.95;100555.72;4873316;29;20057;-71
2022/05/22 07:15:41;;;;;;;13.10;9.55;;;;;;;26.08;60.70;100546.88;4878772;29;20056;-71
2022/05/22 07:18:30;;;;;;;12.55;9.73;;;;;;;26.16;61.38;100556.94;4875908;29;20408;-70
2022/05/22 07:21:19;;;;;;;13.60;10.50;;;;;;;26.24;58.87;100555.03;4872160;29;20053;-71
2022/05/22 07:24:10;;;;;;;13.77;9.15;;;;;;;26.33;59.99;100553.91;4875381;29;20053;-70
2022/05/22 07:27:01;;;;;;;13.18;10.18;;;;;;;26.20;59.44;100559.78;4874918;29;20048;-69
2022/05/22 07:29:50;;;;;;;12.63;9.65;;;;;;;26.20;58.49;100554.19;4874171;29;20057;-69
2022/05/22 07:32:39;;;;;;;15.23;11.05;;;;;;;26.13;59.33;100559.72;4874246;29;20056;-70
2022/05/22 07:35:32;;;;;;;11.95;8.48;;;;;;;26.24;58.96;100555.03;4875568;29;20073;-70
2022/05/22 07:38:25;;;;;;;14.57;9.13;;;;;;;26.22;59.01;100546.19;4879131;29;20139;-70
2022/05/22 07:41:31;;;;;;;15.27;10.20;;;;;;;26.15;59.25;100546.94;4837660;29;20053;-70
2022/05/22 07:44:09;;;;;;;14.20;9.40;;;;;;;26.27;58.45;100554.28;4823500;29;20506;-70
2022/05/22 07:46:58;;;;;;;13.48;10.07;;;;;;;26.14;59.65;100553.75;4864883;29;20053;-70
2022/05/22 07:52:45;;;;;;;11.75;9.30;;;;;;;26.36;58.87;100545.53;4875474;29;20057;-71
2022/05/22 07:55:23;;;;;;;12.85;9.73;;;;;;;26.50;57.57;100549.63;4878535;29;20078;-70
2022/05/22 07:58:14;;;;;;;13.52;10.70;;;;;;;26.44;58.56;100540.75;4891184;29;20056;-70
2022/05/22 08:01:00;;;;;;;11.80;9.40;;;;;;;26.63;58.41;100547.31;4890673;29;20064;-71
2022/05/22 08:03:48;;;;;;;11.25;8.85;;;;;;;26.64;56.38;100543.28;4879923;29;20045;-71
2022/05/22 08:06:40;;;;;;;12.13;8.40;;;;;;;26.66;57.29;100526.84;4861954;29;20049;-71
2022/05/22 08:09:23;;;;;;;9.77;8.00;;;;;;;26.58;56.13;100520.41;4880964;29;20052;-71
2022/05/22 08:11:51;;;;;;;9.70;7.93;;;;;;;26.75;56.55;100532.13;4890786;29;20072;-71
2022/05/22 08:14:20;;;;;;;10.63;8.07;;;;;;;26.91;56.26;100532.63;4872110;29;20059;-71
2022/05/22 08:16:48;;;;;;;10.15;8.27;;;;;;;26.98;55.04;100533.84;4899127;29;20032;-71
2022/05/22 08:19:21;;;;;;;10.05;8.43;;;;;;;27.05;55.13;100534.69;4881130;29;20048;-71
2022/05/22 08:22:15;;;;;;;11.25;8.45;;;;;;;26.98;54.95;100520.63;4882480;29;20513;-71
2022/05/22 08:25:04;;;;;;;9.18;8.07;;;;;;;27.10;53.53;100527.88;4888231;29;20053;-71
2022/05/22 08:27:34;;;;;;;8.93;6.97;;;;;;;27.22;52.52;100538.75;4871702;29;20439;-71
2022/05/22 08:30:04;;;;;;;11.93;8.45;;;;;;;27.27;52.97;100531.94;4866996;29;20485;-71
2022/05/22 08:32:37;;;;;;;9.23;7.93;;;;;;;27.44;51.71;100521.16;4873858;29;20056;-70
2022/05/22 08:35:09;;;;;;;8.80;7.32;;;;;;;27.41;51.68;100528.38;4899841;29;20393;-71
2022/05/22 08:37:37;;;;;;;8.82;6.82;;;;;;;27.47;51.05;100514.75;4895731;29;20144;-71
2022/05/22 08:40:06;;;;;;;9.13;7.72;;;;;;;27.59;51.70;100511.59;4890973;29;20056;-71
2022/05/22 08:42:49;;;;;;;12.70;7.50;;;;;;;27.69;49.71;100514.78;4893855;29;20052;-71
2022/05/22 08:45:23;;;;;;;9.95;8.07;;;;;;;27.59;50.13;100511.59;4896631;29;20059;-70
2022/05/22 08:48:12;;;;;;;11.15;8.00;;;;;;;27.68;50.06;100516.81;4896150;29;20055;-71
2022/05/22 08:50:45;;;;;;;11.88;7.22;;;;;;;27.79;50.58;100507.56;4881436;29;20056;-71
2022/05/22 08:53:23;;;;;;;7.35;6.65;;;;;;;27.87;49.43;100521.22;4852897;29;20061;-72
2022/05/22 08:58:56;;;;;;;11.07;7.45;;;;;;;27.90;49.15;100503.56;4867218;29;20065;-71
2022/05/22 09:01:30;;;;;;;9.02;6.85;;;;;;;28.04;48.97;100497.13;4856540;29;20061;-71
2022/05/22 09:04:43;;;;;;;7.78;6.10;;;;;;;27.87;47.25;100495.91;4831856;29;20076;-71
2022/05/22 09:07:20;;;;;;;6.93;6.05;;;;;;;28.04;45.96;100501.94;4824108;29;20049;-71
2022/05/22 09:10:00;;;;;;;5.88;5.07;;;;;;;28.21;44.24;100499.50;4841899;29;20060;-71
2022/05/22 09:12:45;;;;;;;5.70;5.20;;;;;;;28.21;44.76;100499.50;4847175;29;20045;-72
2022/05/22 09:15:22;;;;;;;6.47;5.88;;;;;;;28.28;45.48;100497.53;4854806;29;20049;-72
2022/05/22 09:17:54;;;;;;;7.82;5.97;;;;;;;28.30;45.86;100503.53;4859934;29;20049;-72
2022/05/22 09:20:32;;;;;;;7.78;5.63;;;;;;;28.39;45.71;100499.53;4831223;29;20049;-71
2022/05/22 09:23:25;;;;;;;8.88;5.85;;;;;;;28.36;46.06;100484.25;4855452;29;20054;-72
2022/05/22 09:26:06;;;;;;;10.63;5.63;;;;;;;28.51;46.05;100484.19;4830144;29;20409;-72
2022/05/22 09:28:44;;;;;;;7.70;5.68;;;;;;;28.55;45.71;100479.38;4832173;29;20408;-71
2022/05/22 09:31:20;;;;;;;5.53;4.80;;;;;;;28.67;45.78;100469.66;4847364;29;20064;-72
2022/05/22 09:34:03;;;;;;;6.07;5.47;;;;;;;28.63;45.82;100472.50;4862053;29;20045;-72
2022/05/22 09:36:56;;;;;;;5.72;5.15;;;;;;;28.85;44.93;100469.59;4862638;29;20049;-72
2022/05/22 09:39:40;;;;;;;6.75;5.65;;;;;;;28.88;44.83;100477.25;4847619;29;20409;-72
2022/05/22 09:42:18;;;;;;;5.80;4.60;;;;;;;28.86;44.29;100465.59;4862357;29;20053;-72
2022/05/22 09:45:16;;;;;;;13.00;5.75;;;;;;;28.56;45.55;100467.72;4846091;29;20496;-71
2022/05/22 09:48:16;;;;;;;6.35;5.75;;;;;;;28.42;45.98;100465.75;4847991;29;20053;-72
2022/05/22 09:51:01;;;;;;;4.93;4.28;;;;;;;28.52;45.87;100469.72;4854466;29;20061;-72
2022/05/22 09:54:01;;;;;;;5.07;4.53;;;;;;;28.78;45.52;100464.00;4857054;29;20413;-72
2022/05/22 09:57:14;;;;;;;5.88;5.07;;;;;;;29.06;45.72;100473.53;4852410;29;20061;-72
2022/05/22 10:00:10;;;;;;;5.32;4.80;;;;;;;29.17;44.48;100473.47;4854817;29;20065;-72
2022/05/22 10:02:58;;;;;;;5.80;5.15;;;;;;;29.45;45.01;100464.03;4862983;29;20060;-71
2022/05/22 10:05:40;;;;;;;5.90;5.32;;;;;;;29.26;44.03;100467.41;4877917;29;20386;-72
2022/05/22 10:08:34;;;;;;;5.50;5.00;;;;;;;29.32;45.16;100463.69;4858506;29;20044;-72
2022/05/22 10:11:14;;;;;;;6.18;5.10;;;;;;;29.43;44.33;100455.19;4858789;29;20064;-72
2022/05/22 10:13:45;;;;;;;6.07;4.93;;;;;;;29.47;43.67;100457.97;4862306;29;20083;-72
2022/05/22 10:16:30;;;;;;;6.65;5.53;;;;;;;29.53;44.07;100450.72;4855859;29;20041;-72
2022/05/22 10:19:03;;;;;;;5.47;4.97;;;;;;;29.70;43.99;100465.06;4855354;29;20061;-72
2022/05/22 10:21:44;;;;;;;5.45;4.80;;;;;;;29.68;43.46;100462.69;4861270;29;20049;-73
2022/05/22 10:24:47;;;;;;;5.60;5.10;;;;;;;29.81;42.78;100457.31;4851414;29;20504;-72
2022/05/22 10:27:39;;;;;;;6.18;5.43;;;;;;;29.78;43.24;100460.97;4876354;29;20048;-72
2022/05/22 10:30:19;;;;;;;5.78;5.13;;;;;;;29.81;43.17;100450.88;4852090;29;20061;-72
2022/05/22 10:33:03;;;;;;;5.80;4.72;;;;;;;29.87;43.60;100446.38;4841494;29;20082;-72
2022/05/22 10:35:52;;;;;;;8.00;5.38;;;;;;;29.92;42.98;100437.47;4877408;29;20053;-72
2022/05/22 10:38:56;;;;;;;5.35;4.85;;;;;;;29.89;42.56;100447.56;4877579;29;20061;-72
2022/05/22 10:44:54;;;;;;;;;;;;;;;30.27;42.04;100441.19;4859927;29;20064;-72
2022/05/22 10:47:33;;;;;;;5.47;4.88;;;;;;;30.23;42.00;100434.75;4851834;29;19931;-73
2022/05/22 10:50:19;;;;;;;4.72;4.35;;;;;;;30.44;41.46;100438.53;4845179;29;20045;-72
2022/05/22 10:52:50;;;;;;;5.57;4.70;;;;;;;30.31;41.63;100424.97;4874756;29;20065;-72
2022/05/22 10:55:28;;;;;;;5.20;4.70;;;;;;;30.36;41.45;100425.75;4852053;29;20064;-72
2022/05/22 10:58:23;;;;;;;5.40;4.85;;;;;;;30.40;41.64;100423.69;4872213;29;20049;-72
2022/05/22 11:01:04;;;;;;;5.28;4.78;;;;;;;30.67;41.17;100420.09;4871371;29;20072;-72
2022/05/22 11:03:35;;;;;;;5.78;4.80;;;;;;;30.71;40.32;100420.91;4860499;29;20503;-72
2022/05/22 11:06:22;;;;;;;5.20;4.70;;;;;;;30.68;41.42;100416.06;4851872;29;20056;-72
2022/05/22 11:08:53;;;;;;;4.93;4.32;;;;;;;30.52;41.81;100411.03;4863141;29;20524;-72
2022/05/22 11:11:30;;;;;;;5.75;4.78;;;;;;;30.46;41.33;100402.25;4856713;29;20052;-73
2022/05/22 11:14:11;;;;;;;4.57;4.18;;;;;;;30.43;41.65;100403.88;4843487;29;20048;-72
2022/05/22 11:16:41;;;;;;;5.47;3.97;;;;;;;30.54;41.19;100412.22;4856028;29;20072;-72
2022/05/22 11:19:20;;;;;;;5.00;4.50;;;;;;;30.83;40.92;100409.03;4852911;29;20053;-72
2022/05/22 11:21:54;;;;;;;5.20;4.00;;;;;;;31.00;40.70;100412.03;4878582;29;20049;-72
2022/05/22 11:24:49;;;;;;;4.85;4.45;;;;;;;31.22;39.88;100404.00;4883364;29;20544;-73
2022/05/22 11:27:47;;;;;;;4.53;4.03;;;;;;;31.11;41.54;100404.19;4861188;29;20056;-72
2022/05/22 11:30:29;;;;;;;4.60;3.95;;;;;;;31.00;41.37;100406.38;4858240;29;20678;-73
2022/05/22 11:33:24;;;;;;;5.03;4.38;;;;;;;30.66;41.24;100399.56;4873717;29;20493;-72
2022/05/22 11:36:07;;;;;;;4.32;3.92;;;;;;;30.93;41.03;100389.53;4878348;29;20049;-72
2022/05/22 11:39:06;;;;;;;4.50;4.05;;;;;;;31.04;40.76;100395.03;4870878;29;20065;-72
2022/05/22 11:42:01;;;;;;;6.68;4.97;;;;;;;31.07;39.63;100378.00;4865000;29;20045;-73
2022/05/22 11:44:57;;;;;;;4.97;4.50;;;;;;;30.95;40.99;100378.59;4854292;29;20053;-72
2022/05/22 11:47:47;;;;;;;4.53;4.13;;;;;;;31.06;39.47;100379.25;4869562;29;20063;-72
2022/05/22 11:50:54;;;;;;;4.63;3.90;;;;;;;31.18;40.35;100374.22;4868802;29;20404;-73
2022/05/22 11:54:01;;;;;;;4.03;3.67;;;;;;;31.45;39.74;100364.91;4854317;29;20424;-71
2022/05/22 11:56:41;;;;;;;5.75;3.80;;;;;;;31.49;40.04;100371.31;4875804;29;20052;-71
2022/05/22 11:59:32;;;;;;;6.93;4.43;;;;;;;31.20;39.06;100368.94;4876592;29;20059;-72
2022/05/22 12:02:16;;;;;;;4.55;3.95;;;;;;;31.32;40.88;100371.16;4872755;29;20060;-72
2022/05/22 12:05:10;;;;;;;4.03;3.50;;;;;;;31.11;40.63;100372.28;4843779;29;20049;-72
2022/05/22 12:07:43;;;;;;;8.45;4.40;;;;;;;31.41;41.29;100372.66;4885296;29;20049;-72
2022/05/22 12:10:17;;;;;;;4.43;3.55;;;;;;;31.64;39.36;100364.16;4873980;29;20065;-72
2022/05/22 12:12:58;;;;;;;7.63;3.80;;;;;;;31.36;39.56;100366.25;4867532;29;20057;-72
2022/05/22 12:15:46;;;;;;;6.03;3.90;;;;;;;31.97;39.16;100372.06;4877085;29;20045;-72
2022/05/22 12:18:39;;;;;;;3.92;3.53;;;;;;;31.97;38.52;100362.78;4851644;29;20065;-72
2022/05/22 12:21:29;;;;;;;4.45;3.95;;;;;;;31.93;38.54;100360.03;4841215;29;20054;-72
2022/05/22 12:24:13;;;;;;;5.45;4.30;;;;;;;31.76;37.46;100344.94;4844307;29;20060;-72
2022/05/22 12:26:43;;;;;;;4.85;4.35;;;;;;;31.82;37.59;100346.06;4861258;29;20053;-72
2022/05/22 12:29:24;;;;;;;5.82;3.70;;;;;;;32.12;39.19;100344.28;4844460;29;20076;-72
2022/05/22 12:31:59;;;;;;;3.92;3.50;;;;;;;32.34;38.00;100335.31;4857334;29;20049;-72
2022/05/22 12:34:39;;;;;;;4.45;3.67;;;;;;;32.46;37.01;100324.59;4857925;29;20516;-73